sensor_id;sensor_type;location;lat;lon;timestamp;pressure;altitude;pressure_sealevel;temperature;humidity
36964;BME280;22878;48.616;35.326;2023-04-28T00:01:23;100365.64;;;15.72;100.00
36964;BME280;22878;48.616;35.326;2023-04-28T00:03:49;100356.63;;;15.74;100.00
36964;BME280;22878;48.616;35.326;2023-04-28T00:06:14;100356.92;;;15.73;100.00
36964;BME280;22878;48.616;35.326;2023-04-28T00:08:40;100360.21;;;15.80;100.00
36964;BME280;22878;48.616;35.326;2023-04-28T00:11:09;100363.97;;;15.86;100.00
36964;BME280;22878;48.616;35.326;2023-04-28T00:13:35;100359.95;;;15.95;100.00
36964;BME280;22878;48.616;35.326;2023-04-28T00:16:01;100355.14;;;15.99;100.00
36964;BME280;22878;48.616;35.326;2023-04-28T00:18:27;100358.30;;;15.98;100.00
36964;BME280;22878;48.616;35.326;2023-04-28T00:20:54;100359.75;;;16.07;100.00
36964;BME280;22878;48.616;35.326;2023-04-28T00:23:19;100366.02;;;16.07;100.00
36964;BME280;22878;48.616;35.326;2023-04-28T00:25:50;100369.73;;;16.06;100.00
36964;BME280;22878;48.616;35.326;2023-04-28T00:28:16;100372.77;;;16.08;100.00
36964;BME280;22878;48.616;35.326;2023-04-28T00:30:41;100376.05;;;16.02;100.00
36964;BME280;22878;48.616;35.326;2023-04-28T00:33:07;100378.54;;;16.08;100.00
36964;BME280;22878;48.616;35.326;2023-04-28T00:35:32;100376.20;;;16.20;100.00
36964;BME280;22878;48.616;35.326;2023-04-28T00:37:58;100381.80;;;16.22;100.00
36964;BME280;22878;48.616;35.326;2023-04-28T00:40:34;100381.88;;;16.05;100.00
36964;BME280;22878;48.616;35.326;2023-04-28T00:43:01;100380.34;;;16.05;100.00
36964;BME280;22878;48.616;35.326;2023-04-28T00:45:27;100374.63;;;16.05;100.00
36964;BME280;22878;48.616;35.326;2023-04-28T00:47:53;100375.96;;;16.04;100.00
36964;BME280;22878;48.616;35.326;2023-04-28T00:50:20;100375.42;;;16.06;100.00
36964;BME280;22878;48.616;35.326;2023-04-28T00:52:46;100379.98;;;16.07;100.00
36964;BME280;22878;48.616;35.326;2023-04-28T00:55:14;100380.14;;;16.10;100.00
36964;BME280;22878;48.616;35.326;2023-04-28T00:57:40;100376.95;;;16.15;100.00
36964;BME280;22878;48.616;35.326;2023-04-28T01:00:07;100375.52;;;16.13;100.00
36964;BME280;22878;48.616;35.326;2023-04-28T01:02:34;100380.08;;;16.11;100.00
36964;BME280;22878;48.616;35.326;2023-04-28T01:05:01;100377.70;;;16.10;100.00
36964;BME280;22878;48.616;35.326;2023-04-28T01:07:26;100377.33;;;16.12;100.00
36964;BME280;22878;48.616;35.326;2023-04-28T01:09:53;100378.39;;;16.19;100.00
36964;BME280;22878;48.616;35.326;2023-04-28T01:12:18;100378.81;;;16.16;100.00
36964;BME280;22878;48.616;35.326;2023-04-28T01:14:44;100379.54;;;16.15;100.00
36964;BME280;22878;48.616;35.326;2023-04-28T01:17:10;100381.85;;;16.14;100.00
36964;BME280;22878;48.616;35.326;2023-04-28T01:19:36;100377.91;;;16.26;100.00
36964;BME280;22878;48.616;35.326;2023-04-28T01:22:02;100383.31;;;16.28;100.00
36964;BME280;22878;48.616;35.326;2023-04-28T01:24:28;100385.33;;;16.34;100.00
36964;BME280;22878;48.616;35.326;2023-04-28T01:26:54;100387.69;;;16.11;100.00
36964;BME280;22878;48.616;35.326;2023-04-28T01:29:20;100397.34;;;16.10;100.00
36964;BME280;22878;48.616;35.326;2023-04-28T01:31:45;100400.50;;;16.09;100.00
36964;BME280;22878;48.616;35.326;2023-04-28T01:34:11;100402.84;;;16.03;100.00
36964;BME280;22878;48.616;35.326;2023-04-28T01:36:36;100407.58;;;16.03;100.00
36964;BME280;22878;48.616;35.326;2023-04-28T01:39:02;100413.77;;;16.08;100.00
36964;BME280;22878;48.616;35.326;2023-04-28T01:41:28;100416.70;;;16.12;100.00
36964;BME280;22878;48.616;35.326;2023-04-28T01:43:53;100416.54;;;16.14;100.00
36964;BME280;22878;48.616;35.326;2023-04-28T01:46:19;100416.47;;;16.13;100.00
36964;BME280;22878;48.616;35.326;2023-04-28T01:48:44;100416.05;;;16.11;100.00
36964;BME280;22878;48.616;35.326;2023-04-28T01:51:10;100417.29;;;16.10;100.00
36964;BME280;22878;48.616;35.326;2023-04-28T01:53:35;100416.54;;;16.09;100.00
36964;BME280;22878;48.616;35.326;2023-04-28T01:56:01;100419.52;;;16.07;100.00
36964;BME280;22878;48.616;35.326;2023-04-28T01:58:26;100419.15;;;16.21;100.00
36964;BME280;22878;48.616;35.326;2023-04-28T02:00:52;100421.87;;;16.11;100.00
36964;BME280;22878;48.616;35.326;2023-04-28T02:03:17;100417.95;;;16.21;100.00
36964;BME280;22878;48.616;35.326;2023-04-28T02:05:43;100420.05;;;16.27;100.00
36964;BME280;22878;48.616;35.326;2023-04-28T02:08:08;100416.28;;;16.30;100.00
36964;BME280;22878;48.616;35.326;2023-04-28T02:10:34;100418.96;;;16.30;100.00
36964;BME280;22878;48.616;35.326;2023-04-28T02:12:59;100428.48;;;16.29;100.00
36964;BME280;22878;48.616;35.326;2023-04-28T02:15:25;100432.52;;;16.32;100.00
36964;BME280;22878;48.616;35.326;2023-04-28T02:17:50;100435.77;;;16.36;100.00
36964;BME280;22878;48.616;35.326;2023-04-28T02:20:16;100441.55;;;16.40;100.00
36964;BME280;22878;48.616;35.326;2023-04-28T02:22:42;100441.45;;;16.43;100.00
36964;BME280;22878;48.616;35.326;2023-04-28T02:25:07;100441.73;;;16.45;100.00
36964;BME280;22878;48.616;35.326;2023-04-28T02:27:36;100448.54;;;16.53;100.00
36964;BME280;22878;48.616;35.326;2023-04-28T02:30:03;100451.66;;;16.54;100.00
36964;BME280;22878;48.616;35.326;2023-04-28T02:32:29;100452.54;;;16.53;100.00
36964;BME280;22878;48.616;35.326;2023-04-28T02:34:56;100459.41;;;16.52;100.00
36964;BME280;22878;48.616;35.326;2023-04-28T02:37:21;100459.31;;;16.58;100.00
36964;BME280;22878;48.616;35.326;2023-04-28T02:39:47;100463.30;;;16.62;100.00
36964;BME280;22878;48.616;35.326;2023-04-28T02:42:12;100469.70;;;16.60;100.00
36964;BME280;22878;48.616;35.326;2023-04-28T02:44:38;100477.52;;;16.43;100.00
36964;BME280;22878;48.616;35.326;2023-04-28T02:47:04;100478.88;;;16.53;100.00
36964;BME280;22878;48.616;35.326;2023-04-28T02:49:29;100481.80;;;16.62;100.00
36964;BME280;22878;48.616;35.326;2023-04-28T02:51:55;100477.98;;;16.65;100.00
36964;BME280;22878;48.616;35.326;2023-04-28T02:54:21;100472.83;;;16.67;100.00
36964;BME280;22878;48.616;35.326;2023-04-28T02:56:55;100475.35;;;16.67;100.00
36964;BME280;22878;48.616;35.326;2023-04-28T02:59:21;100474.48;;;16.66;100.00
36964;BME280;22878;48.616;35.326;2023-04-28T03:01:48;100476.04;;;16.62;100.00
36964;BME280;22878;48.616;35.326;2023-04-28T03:04:14;100472.70;;;16.55;100.00
36964;BME280;22878;48.616;35.326;2023-04-28T03:06:41;100474.19;;;16.54;100.00
36964;BME280;22878;48.616;35.326;2023-04-28T03:09:07;100472.44;;;16.55;100.00
36964;BME280;22878;48.616;35.326;2023-04-28T03:11:33;100470.54;;;16.46;100.00
36964;BME280;22878;48.616;35.326;2023-04-28T03:13:59;100470.35;;;16.47;100.00
36964;BME280;22878;48.616;35.326;2023-04-28T03:16:24;100466.64;;;16.47;100.00
36964;BME280;22878;48.616;35.326;2023-04-28T03:18:50;100467.68;;;16.50;100.00
36964;BME280;22878;48.616;35.326;2023-04-28T03:21:15;100470.73;;;16.53;100.00
36964;BME280;22878;48.616;35.326;2023-04-28T03:23:41;100472.71;;;16.49;100.00
36964;BME280;22878;48.616;35.326;2023-04-28T03:26:06;100473.21;;;16.64;100.00
36964;BME280;22878;48.616;35.326;2023-04-28T03:28:32;100471.23;;;16.72;100.00
36964;BME280;22878;48.616;35.326;2023-04-28T03:30:58;100466.24;;;16.77;100.00
36964;BME280;22878;48.616;35.326;2023-04-28T03:33:23;100463.89;;;16.77;100.00
36964;BME280;22878;48.616;35.326;2023-04-28T03:35:49;100456.78;;;16.76;100.00
36964;BME280;22878;48.616;35.326;2023-04-28T03:38:14;100456.79;;;16.67;100.00
36964;BME280;22878;48.616;35.326;2023-04-28T03:40:40;100451.46;;;16.69;100.00
36964;BME280;22878;48.616;35.326;2023-04-28T03:43:06;100444.63;;;16.68;100.00
36964;BME280;22878;48.616;35.326;2023-04-28T03:45:31;100442.77;;;16.71;100.00
36964;BME280;22878;48.616;35.326;2023-04-28T03:47:57;100441.02;;;16.71;100.00
36964;BME280;22878;48.616;35.326;2023-04-28T03:50:22;100443.64;;;16.76;100.00
36964;BME280;22878;48.616;35.326;2023-04-28T03:52:48;100442.88;;;16.74;100.00
36964;BME280;22878;48.616;35.326;2023-04-28T03:55:33;100432.95;;;16.79;100.00
36964;BME280;22878;48.616;35.326;2023-04-28T03:57:59;100426.90;;;16.84;100.00
36964;BME280;22878;48.616;35.326;2023-04-28T04:00:24;100426.40;;;16.82;100.00
36964;BME280;22878;48.616;35.326;2023-04-28T04:02:50;100428.86;;;16.75;100.00
36964;BME280;22878;48.616;35.326;2023-04-28T04:05:15;100422.63;;;16.71;100.00
36964;BME280;22878;48.616;35.326;2023-04-28T04:07:41;100412.77;;;16.69;100.00
36964;BME280;22878;48.616;35.326;2023-04-28T04:10:07;100407.95;;;16.65;100.00
36964;BME280;22878;48.616;35.326;2023-04-28T04:12:33;100400.97;;;16.55;100.00
36964;BME280;22878;48.616;35.326;2023-04-28T04:14:58;100393.94;;;16.51;100.00
36964;BME280;22878;48.616;35.326;2023-04-28T04:17:24;100387.75;;;16.43;100.00
36964;BME280;22878;48.616;35.326;2023-04-28T04:19:49;100381.52;;;16.37;100.00
36964;BME280;22878;48.616;35.326;2023-04-28T04:22:14;100370.48;;;16.31;100.00
36964;BME280;22878;48.616;35.326;2023-04-28T04:24:40;100350.70;;;16.30;100.00
36964;BME280;22878;48.616;35.326;2023-04-28T04:27:05;100346.42;;;16.26;100.00
36964;BME280;22878;48.616;35.326;2023-04-28T04:29:31;100340.06;;;16.21;100.00
36964;BME280;22878;48.616;35.326;2023-04-28T04:31:56;100353.65;;;16.16;100.00
36964;BME280;22878;48.616;35.326;2023-04-28T04:34:22;100363.58;;;16.15;100.00
36964;BME280;22878;48.616;35.326;2023-04-28T04:36:47;100369.41;;;16.15;100.00
36964;BME280;22878;48.616;35.326;2023-04-28T04:39:13;100374.93;;;16.18;100.00
36964;BME280;22878;48.616;35.326;2023-04-28T04:41:38;100378.48;;;16.17;100.00
36964;BME280;22878;48.616;35.326;2023-04-28T04:44:04;100379.89;;;16.18;100.00
36964;BME280;22878;48.616;35.326;2023-04-28T04:46:30;100378.16;;;16.17;100.00
36964;BME280;22878;48.616;35.326;2023-04-28T04:48:56;100382.33;;;16.21;100.00
36964;BME280;22878;48.616;35.326;2023-04-28T04:51:22;100384.60;;;16.21;100.00
36964;BME280;22878;48.616;35.326;2023-04-28T04:53:47;100389.63;;;16.22;100.00
36964;BME280;22878;48.616;35.326;2023-04-28T04:56:12;100385.64;;;16.18;100.00
36964;BME280;22878;48.616;35.326;2023-04-28T04:58:38;100389.09;;;16.17;100.00
36964;BME280;22878;48.616;35.326;2023-04-28T05:01:04;100389.00;;;16.21;100.00
36964;BME280;22878;48.616;35.326;2023-04-28T05:03:30;100393.23;;;16.24;100.00
36964;BME280;22878;48.616;35.326;2023-04-28T05:05:55;100402.04;;;16.27;100.00
36964;BME280;22878;48.616;35.326;2023-04-28T05:08:21;100408.97;;;16.31;100.00
36964;BME280;22878;48.616;35.326;2023-04-28T05:10:46;100412.17;;;16.32;100.00
36964;BME280;22878;48.616;35.326;2023-04-28T05:13:12;100421.63;;;16.30;100.00
36964;BME280;22878;48.616;35.326;2023-04-28T05:15:37;100436.73;;;16.30;100.00
36964;BME280;22878;48.616;35.326;2023-04-28T05:18:03;100450.09;;;16.35;100.00
36964;BME280;22878;48.616;35.326;2023-04-28T05:20:34;100463.61;;;16.39;100.00
36964;BME280;22878;48.616;35.326;2023-04-28T05:23:00;100463.42;;;16.40;100.00
36964;BME280;22878;48.616;35.326;2023-04-28T05:25:27;100452.08;;;16.44;100.00
36964;BME280;22878;48.616;35.326;2023-04-28T05:27:52;100448.64;;;16.50;100.00
36964;BME280;22878;48.616;35.326;2023-04-28T05:30:18;100443.02;;;16.50;100.00
36964;BME280;22878;48.616;35.326;2023-04-28T05:32:43;100434.04;;;16.48;100.00
36964;BME280;22878;48.616;35.326;2023-04-28T05:35:09;100425.13;;;16.55;100.00
36964;BME280;22878;48.616;35.326;2023-04-28T05:37:34;100423.71;;;16.66;100.00
36964;BME280;22878;48.616;35.326;2023-04-28T05:40:02;100428.21;;;16.65;100.00
36964;BME280;22878;48.616;35.326;2023-04-28T05:42:28;100437.20;;;16.67;100.00
36964;BME280;22878;48.616;35.326;2023-04-28T05:44:53;100441.14;;;16.69;100.00
36964;BME280;22878;48.616;35.326;2023-04-28T05:47:19;100440.45;;;16.73;100.00
36964;BME280;22878;48.616;35.326;2023-04-28T05:49:46;100439.89;;;16.83;100.00
36964;BME280;22878;48.616;35.326;2023-04-28T05:52:12;100434.60;;;16.90;100.00
36964;BME280;22878;48.616;35.326;2023-04-28T05:54:37;100440.73;;;16.96;100.00
36964;BME280;22878;48.616;35.326;2023-04-28T05:57:03;100449.55;;;16.93;100.00
36964;BME280;22878;48.616;35.326;2023-04-28T05:59:29;100465.98;;;16.89;100.00
36964;BME280;22878;48.616;35.326;2023-04-28T06:01:55;100480.08;;;16.84;100.00
36964;BME280;22878;48.616;35.326;2023-04-28T06:04:21;100488.44;;;16.80;100.00
36964;BME280;22878;48.616;35.326;2023-04-28T06:06:47;100485.52;;;16.82;100.00
36964;BME280;22878;48.616;35.326;2023-04-28T06:09:12;100485.02;;;16.90;100.00
36964;BME280;22878;48.616;35.326;2023-04-28T06:11:38;100483.96;;;16.88;100.00
36964;BME280;22878;48.616;35.326;2023-04-28T06:14:04;100489.58;;;16.91;100.00
36964;BME280;22878;48.616;35.326;2023-04-28T06:16:29;100499.65;;;16.88;100.00
36964;BME280;22878;48.616;35.326;2023-04-28T06:18:55;100509.26;;;16.87;100.00
36964;BME280;22878;48.616;35.326;2023-04-28T06:21:24;100512.69;;;16.79;100.00
36964;BME280;22878;48.616;35.326;2023-04-28T06:23:51;100507.85;;;16.74;100.00
36964;BME280;22878;48.616;35.326;2023-04-28T06:26:17;100499.59;;;16.70;100.00
36964;BME280;22878;48.616;35.326;2023-04-28T06:28:42;100503.10;;;16.67;100.00
36964;BME280;22878;48.616;35.326;2023-04-28T06:31:08;100507.16;;;16.60;100.00
36964;BME280;22878;48.616;35.326;2023-04-28T06:33:34;100504.09;;;16.58;100.00
36964;BME280;22878;48.616;35.326;2023-04-28T06:36:00;100504.60;;;16.57;100.00
36964;BME280;22878;48.616;35.326;2023-04-28T06:38:26;100506.77;;;16.57;100.00
36964;BME280;22878;48.616;35.326;2023-04-28T06:40:51;100504.95;;;16.56;100.00
36964;BME280;22878;48.616;35.326;2023-04-28T06:43:18;100500.36;;;16.56;100.00
36964;BME280;22878;48.616;35.326;2023-04-28T06:45:44;100497.48;;;16.54;100.00
36964;BME280;22878;48.616;35.326;2023-04-28T06:48:10;100498.00;;;16.52;100.00
36964;BME280;22878;48.616;35.326;2023-04-28T06:50:36;100503.24;;;16.54;100.00
36964;BME280;22878;48.616;35.326;2023-04-28T06:53:02;100510.27;;;16.53;100.00
36964;BME280;22878;48.616;35.326;2023-04-28T06:55:27;100514.20;;;16.47;100.00
36964;BME280;22878;48.616;35.326;2023-04-28T06:57:53;100521.06;;;16.38;100.00
36964;BME280;22878;48.616;35.326;2023-04-28T07:00:19;100527.26;;;16.32;100.00
36964;BME280;22878;48.616;35.326;2023-04-28T07:02:45;100535.53;;;16.29;100.00
36964;BME280;22878;48.616;35.326;2023-04-28T07:05:17;100541.66;;;16.30;100.00
36964;BME280;22878;48.616;35.326;2023-04-28T07:07:44;100543.41;;;16.36;100.00
36964;BME280;22878;48.616;35.326;2023-04-28T07:10:09;100551.85;;;16.41;100.00
36964;BME280;22878;48.616;35.326;2023-04-28T07:12:35;100554.25;;;16.44;100.00
36964;BME280;22878;48.616;35.326;2023-04-28T07:15:01;100560.50;;;16.44;100.00
36964;BME280;22878;48.616;35.326;2023-04-28T07:17:27;100575.28;;;16.39;100.00
36964;BME280;22878;48.616;35.326;2023-04-28T07:19:52;100578.77;;;16.28;100.00
36964;BME280;22878;48.616;35.326;2023-04-28T07:22:18;100583.56;;;16.19;100.00
36964;BME280;22878;48.616;35.326;2023-04-28T07:24:44;100581.52;;;16.14;100.00
36964;BME280;22878;48.616;35.326;2023-04-28T07:27:09;100569.43;;;16.09;100.00
36964;BME280;22878;48.616;35.326;2023-04-28T07:29:35;100552.98;;;16.18;100.00
36964;BME280;22878;48.616;35.326;2023-04-28T07:32:01;100549.75;;;16.27;100.00
36964;BME280;22878;48.616;35.326;2023-04-28T07:34:29;100548.76;;;16.37;100.00
36964;BME280;22878;48.616;35.326;2023-04-28T07:36:55;100544.91;;;16.40;100.00
36964;BME280;22878;48.616;35.326;2023-04-28T07:39:22;100544.41;;;16.43;100.00
36964;BME280;22878;48.616;35.326;2023-04-28T07:41:48;100551.27;;;16.43;100.00
36964;BME280;22878;48.616;35.326;2023-04-28T07:44:14;100562.05;;;16.43;100.00
36964;BME280;22878;48.616;35.326;2023-04-28T07:46:39;100573.13;;;16.44;100.00
36964;BME280;22878;48.616;35.326;2023-04-28T07:49:05;100572.98;;;16.46;100.00
36964;BME280;22878;48.616;35.326;2023-04-28T07:51:32;100567.87;;;16.49;100.00
36964;BME280;22878;48.616;35.326;2023-04-28T07:53:58;100568.95;;;16.52;100.00
36964;BME280;22878;48.616;35.326;2023-04-28T07:56:24;100566.10;;;16.53;100.00
36964;BME280;22878;48.616;35.326;2023-04-28T07:58:50;100557.47;;;16.55;100.00
36964;BME280;22878;48.616;35.326;2023-04-28T08:01:16;100547.00;;;16.56;100.00
36964;BME280;22878;48.616;35.326;2023-04-28T08:03:42;100541.68;;;16.59;100.00
36964;BME280;22878;48.616;35.326;2023-04-28T08:06:08;100547.06;;;16.62;100.00
36964;BME280;22878;48.616;35.326;2023-04-28T08:08:33;100552.06;;;16.62;100.00
36964;BME280;22878;48.616;35.326;2023-04-28T08:11:00;100547.40;;;16.61;100.00
36964;BME280;22878;48.616;35.326;2023-04-28T08:13:26;100527.44;;;16.64;100.00
36964;BME280;22878;48.616;35.326;2023-04-28T08:15:53;100515.14;;;16.72;100.00
36964;BME280;22878;48.616;35.326;2023-04-28T08:18:21;100515.69;;;16.81;100.00
36964;BME280;22878;48.616;35.326;2023-04-28T08:20:46;100517.91;;;17.00;100.00
36964;BME280;22878;48.616;35.326;2023-04-28T08:23:12;100511.31;;;17.03;100.00
36964;BME280;22878;48.616;35.326;2023-04-28T08:25:38;100510.34;;;17.08;100.00
36964;BME280;22878;48.616;35.326;2023-04-28T08:28:03;100514.46;;;17.11;100.00
36964;BME280;22878;48.616;35.326;2023-04-28T08:30:31;100520.67;;;17.21;100.00
36964;BME280;22878;48.616;35.326;2023-04-28T08:32:56;100521.55;;;17.20;100.00
36964;BME280;22878;48.616;35.326;2023-04-28T08:35:22;100509.61;;;17.21;100.00
36964;BME280;22878;48.616;35.326;2023-04-28T08:37:47;100495.59;;;17.30;100.00
36964;BME280;22878;48.616;35.326;2023-04-28T08:40:14;100485.84;;;17.39;100.00
36964;BME280;22878;48.616;35.326;2023-04-28T08:42:40;100482.36;;;17.53;100.00
36964;BME280;22878;48.616;35.326;2023-04-28T08:45:06;100474.45;;;17.68;100.00
36964;BME280;22878;48.616;35.326;2023-04-28T08:47:34;100482.23;;;17.86;100.00
36964;BME280;22878;48.616;35.326;2023-04-28T08:50:05;100484.29;;;17.97;100.00
36964;BME280;22878;48.616;35.326;2023-04-28T08:52:32;100480.68;;;18.00;100.00
36964;BME280;22878;48.616;35.326;2023-04-28T08:55:07;100481.94;;;18.02;100.00
36964;BME280;22878;48.616;35.326;2023-04-28T08:57:49;100482.65;;;18.10;100.00
36964;BME280;22878;48.616;35.326;2023-04-28T09:00:19;100479.48;;;18.25;100.00
36964;BME280;22878;48.616;35.326;2023-04-28T09:02:45;100472.45;;;18.35;100.00
36964;BME280;22878;48.616;35.326;2023-04-28T09:05:12;100467.27;;;18.36;100.00
36964;BME280;22878;48.616;35.326;2023-04-28T09:07:39;100464.60;;;18.40;100.00
36964;BME280;22878;48.616;35.326;2023-04-28T09:10:14;100459.39;;;18.47;100.00
36964;BME280;22878;48.616;35.326;2023-04-28T09:12:40;100460.40;;;18.61;100.00
36964;BME280;22878;48.616;35.326;2023-04-28T09:15:06;100454.73;;;18.73;100.00
36964;BME280;22878;48.616;35.326;2023-04-28T09:17:49;100453.14;;;18.79;100.00
36964;BME280;22878;48.616;35.326;2023-04-28T09:20:19;100449.35;;;18.93;100.00
36964;BME280;22878;48.616;35.326;2023-04-28T09:22:45;100451.19;;;19.11;100.00
36964;BME280;22878;48.616;35.326;2023-04-28T09:25:11;100447.23;;;19.13;100.00
36964;BME280;22878;48.616;35.326;2023-04-28T09:27:37;100449.52;;;19.10;100.00
36964;BME280;22878;48.616;35.326;2023-04-28T09:30:02;100453.02;;;19.12;100.00
36964;BME280;22878;48.616;35.326;2023-04-28T09:32:29;100452.00;;;19.04;100.00
36964;BME280;22878;48.616;35.326;2023-04-28T09:34:55;100450.36;;;19.10;100.00
36964;BME280;22878;48.616;35.326;2023-04-28T09:37:23;100446.05;;;19.15;100.00
36964;BME280;22878;48.616;35.326;2023-04-28T09:39:50;100445.48;;;19.12;100.00
36964;BME280;22878;48.616;35.326;2023-04-28T09:42:39;100443.58;;;19.14;100.00
36964;BME280;22878;48.616;35.326;2023-04-28T09:47:42;100442.27;;;19.24;100.00
36964;BME280;22878;48.616;35.326;2023-04-28T09:50:09;100444.30;;;19.28;100.00
36964;BME280;22878;48.616;35.326;2023-04-28T09:52:37;100442.86;;;19.27;100.00
36964;BME280;22878;48.616;35.326;2023-04-28T09:55:04;100443.93;;;19.27;100.00
36964;BME280;22878;48.616;35.326;2023-04-28T09:57:31;100446.31;;;19.10;100.00
36964;BME280;22878;48.616;35.326;2023-04-28T09:59:58;100446.53;;;18.99;100.00
36964;BME280;22878;48.616;35.326;2023-04-28T10:02:24;100445.21;;;19.01;100.00
36964;BME280;22878;48.616;35.326;2023-04-28T10:04:50;100448.48;;;18.99;100.00
36964;BME280;22878;48.616;35.326;2023-04-28T10:07:18;100447.58;;;18.97;100.00
36964;BME280;22878;48.616;35.326;2023-04-28T10:09:48;100450.67;;;18.96;100.00
36964;BME280;22878;48.616;35.326;2023-04-28T10:12:22;100451.73;;;18.94;100.00
36964;BME280;22878;48.616;35.326;2023-04-28T10:14:49;100457.06;;;18.96;100.00
36964;BME280;22878;48.616;35.326;2023-04-28T10:17:16;100455.76;;;18.99;100.00
36964;BME280;22878;48.616;35.326;2023-04-28T10:19:43;100455.83;;;19.20;100.00
36964;BME280;22878;48.616;35.326;2023-04-28T10:27:30;100458.15;;;19.62;100.00
36964;BME280;22878;48.616;35.326;2023-04-28T10:30:17;100462.46;;;19.62;100.00
36964;BME280;22878;48.616;35.326;2023-04-28T10:32:44;100460.60;;;19.52;100.00
36964;BME280;22878;48.616;35.326;2023-04-28T10:38:03;100456.00;;;19.66;100.00
36964;BME280;22878;48.616;35.326;2023-04-28T10:43:01;100445.59;;;19.67;100.00
36964;BME280;22878;48.616;35.326;2023-04-28T10:48:22;100439.04;;;19.58;100.00
36964;BME280;22878;48.616;35.326;2023-04-28T10:56:22;100435.61;;;19.42;100.00
36964;BME280;22878;48.616;35.326;2023-04-28T11:06:19;100428.98;;;19.26;100.00
36964;BME280;22878;48.616;35.326;2023-04-28T11:08:51;100423.42;;;19.20;100.00
36964;BME280;22878;48.616;35.326;2023-04-28T11:11:20;100413.40;;;19.05;100.00
36964;BME280;22878;48.616;35.326;2023-04-28T11:13:47;100407.80;;;18.92;100.00
36964;BME280;22878;48.616;35.326;2023-04-28T11:16:15;100404.55;;;18.82;100.00
36964;BME280;22878;48.616;35.326;2023-04-28T11:21:14;100400.61;;;18.77;100.00
36964;BME280;22878;48.616;35.326;2023-04-28T11:23:41;100394.27;;;18.73;100.00
36964;BME280;22878;48.616;35.326;2023-04-28T11:26:07;100388.94;;;18.73;100.00
36964;BME280;22878;48.616;35.326;2023-04-28T11:28:33;100385.95;;;18.72;100.00
36964;BME280;22878;48.616;35.326;2023-04-28T11:31:11;100387.30;;;18.82;100.00
36964;BME280;22878;48.616;35.326;2023-04-28T11:33:37;100391.67;;;18.93;100.00
36964;BME280;22878;48.616;35.326;2023-04-28T11:36:04;100384.90;;;18.94;100.00
36964;BME280;22878;48.616;35.326;2023-04-28T11:38:42;100380.88;;;18.95;100.00
36964;BME280;22878;48.616;35.326;2023-04-28T11:41:07;100379.56;;;19.02;100.00
36964;BME280;22878;48.616;35.326;2023-04-28T11:43:33;100373.91;;;19.00;100.00
36964;BME280;22878;48.616;35.326;2023-04-28T11:45:59;100373.30;;;19.00;100.00
36964;BME280;22878;48.616;35.326;2023-04-28T11:48:24;100374.33;;;19.01;100.00
36964;BME280;22878;48.616;35.326;2023-04-28T11:50:50;100376.48;;;18.96;100.00
36964;BME280;22878;48.616;35.326;2023-04-28T11:53:16;100367.96;;;18.82;100.00
36964;BME280;22878;48.616;35.326;2023-04-28T11:55:42;100362.46;;;18.80;100.00
36964;BME280;22878;48.616;35.326;2023-04-28T11:58:21;100361.35;;;18.83;100.00
36964;BME280;22878;48.616;35.326;2023-04-28T12:01:07;100356.19;;;18.82;100.00
36964;BME280;22878;48.616;35.326;2023-04-28T12:03:41;100354.31;;;18.73;100.00
36964;BME280;22878;48.616;35.326;2023-04-28T12:06:07;100355.14;;;18.72;100.00
36964;BME280;22878;48.616;35.326;2023-04-28T12:08:32;100355.14;;;18.69;100.00
36964;BME280;22878;48.616;35.326;2023-04-28T12:11:11;100359.34;;;18.60;100.00
36964;BME280;22878;48.616;35.326;2023-04-28T12:13:38;100368.14;;;18.47;100.00
36964;BME280;22878;48.616;35.326;2023-04-28T12:16:05;100379.80;;;18.30;100.00
36964;BME280;22878;48.616;35.326;2023-04-28T12:18:31;100388.94;;;18.14;100.00
36964;BME280;22878;48.616;35.326;2023-04-28T12:20:57;100388.91;;;18.01;100.00
36964;BME280;22878;48.616;35.326;2023-04-28T12:25:59;100386.52;;;17.85;100.00
36964;BME280;22878;48.616;35.326;2023-04-28T12:28:37;100381.79;;;17.78;100.00
36964;BME280;22878;48.616;35.326;2023-04-28T12:31:05;100385.09;;;17.67;100.00
36964;BME280;22878;48.616;35.326;2023-04-28T12:33:34;100385.34;;;17.49;100.00
36964;BME280;22878;48.616;35.326;2023-04-28T12:36:04;100385.79;;;17.35;100.00
36964;BME280;22878;48.616;35.326;2023-04-28T12:38:31;100385.24;;;17.22;100.00
36964;BME280;22878;48.616;35.326;2023-04-28T12:40:57;100390.33;;;17.08;100.00
36964;BME280;22878;48.616;35.326;2023-04-28T12:43:25;100394.60;;;16.92;100.00
36964;BME280;22878;48.616;35.326;2023-04-28T12:45:53;100397.67;;;16.84;100.00
36964;BME280;22878;48.616;35.326;2023-04-28T12:48:19;100392.82;;;16.79;100.00
36964;BME280;22878;48.616;35.326;2023-04-28T12:50:45;100393.64;;;16.76;100.00
36964;BME280;22878;48.616;35.326;2023-04-28T12:53:11;100386.30;;;16.81;100.00
36964;BME280;22878;48.616;35.326;2023-04-28T12:55:36;100381.70;;;16.90;100.00
36964;BME280;22878;48.616;35.326;2023-04-28T12:58:04;100380.93;;;17.02;100.00
36964;BME280;22878;48.616;35.326;2023-04-28T13:00:30;100374.77;;;17.12;100.00
36964;BME280;22878;48.616;35.326;2023-04-28T13:02:58;100383.20;;;17.30;100.00